Time,TemperatureF,DewpointF,PressureIn,WindDirection,WindDirectionDegrees,WindSpeedMPH,WindSpeedGustMPH,Humidity,HourlyPrecipIn,Conditions,Clouds,dailyrainin,SoftwareType,DateUTC
2013-05-31 00:00:00,38.0,23.0,-100.00,ENE,67,1.0,3.0,53,0.00,,,-99.99,,2013-05-31 06:00:00,
2013-05-31 00:31:00,38.0,23.0,-100.00,ENE,67,1.0,3.0,53,0.00,,,-99.99,,2013-05-31 06:31:00,
2013-05-31 00:41:00,38.0,23.0,-100.00,ENE,67,1.0,3.0,53,0.00,,,-99.99,,2013-05-31 06:41:00,
2013-05-31 00:51:00,38.0,23.0,-100.00,ENE,67,1.0,3.0,53,0.00,,,-99.99,,2013-05-31 06:51:00,
2013-05-31 01:00:00,36.0,24.0,-100.00,North,6,2.0,3.0,61,0.00,,,-99.99,,2013-05-31 07:00:00,
2013-05-31 01:32:00,36.0,24.0,-100.00,North,6,2.0,3.0,61,0.00,,,-99.99,,2013-05-31 07:32:00,
2013-05-31 01:41:00,36.0,24.0,-100.00,North,6,2.0,3.0,61,0.00,,,-99.99,,2013-05-31 07:41:00,
2013-05-31 01:52:00,36.0,24.0,-100.00,North,6,2.0,3.0,61,0.00,,,-99.99,,2013-05-31 07:52:00,
2013-05-31 02:00:00,36.0,25.0,-100.00,WSW,241,1.0,2.0,64,0.00,,,-99.99,,2013-05-31 08:00:00,
2013-05-31 02:31:00,36.0,25.0,-100.00,WSW,241,1.0,2.0,64,0.00,,,-99.99,,2013-05-31 08:31:00,
2013-05-31 02:42:00,36.0,25.0,-100.00,WSW,241,1.0,2.0,64,0.00,,,-99.99,,2013-05-31 08:42:00,
2013-05-31 02:51:00,36.0,25.0,-100.00,WSW,241,1.0,2.0,64,0.00,,,-99.99,,2013-05-31 08:51:00,
2013-05-31 03:00:00,35.0,26.0,-100.00,North,3,1.0,3.0,70,0.00,,,-99.99,,2013-05-31 09:00:00,
2013-05-31 03:32:00,35.0,26.0,-100.00,North,3,1.0,3.0,70,0.00,,,-99.99,,2013-05-31 09:32:00,
2013-05-31 03:43:00,35.0,26.0,-100.00,North,3,1.0,3.0,70,0.00,,,-99.99,,2013-05-31 09:43:00,
2013-05-31 03:53:00,35.0,26.0,-100.00,North,3,1.0,3.0,70,0.00,,,-99.99,,2013-05-31 09:53:00,
2013-05-31 04:00:00,36.0,27.0,-100.00,West,261,4.0,7.0,69,0.00,,,-99.99,,2013-05-31 10:00:00,
2013-05-31 04:33:00,36.0,27.0,-100.00,West,261,4.0,7.0,69,0.00,,,-99.99,,2013-05-31 10:33:00,
2013-05-31 04:42:00,36.0,27.0,-100.00,West,261,4.0,7.0,69,0.00,,,-99.99,,2013-05-31 10:42:00,
2013-05-31 04:52:00,36.0,27.0,-100.00,West,261,4.0,7.0,69,0.00,,,-99.99,,2013-05-31 10:52:00,
2013-05-31 05:00:00,36.0,25.0,-100.00,West,264,3.0,6.0,64,0.00,,,-99.99,,2013-05-31 11:00:00,
2013-05-31 05:32:00,36.0,25.0,-100.00,West,264,3.0,6.0,64,0.00,,,-99.99,,2013-05-31 11:32:00,
2013-05-31 05:42:00,36.0,25.0,-100.00,West,264,3.0,6.0,64,0.00,,,-99.99,,2013-05-31 11:42:00,
2013-05-31 05:52:00,36.0,25.0,-100.00,West,264,3.0,6.0,64,0.00,,,-99.99,,2013-05-31 11:52:00,
2013-05-31 06:00:00,34.0,22.0,-100.00,WSW,258,4.0,9.0,60,0.00,,,-99.99,,2013-05-31 12:00:00,
2013-05-31 06:31:00,34.0,22.0,-100.00,WSW,258,4.0,9.0,60,0.00,,,-99.99,,2013-05-31 12:31:00,
2013-05-31 06:41:00,34.0,22.0,-100.00,WSW,258,4.0,9.0,60,0.00,,,-99.99,,2013-05-31 12:41:00,
2013-05-31 06:51:00,34.0,22.0,-100.00,WSW,258,4.0,9.0,60,0.00,,,-99.99,,2013-05-31 12:51:00,
2013-05-31 07:00:00,33.0,23.0,-100.00,West,273,5.0,8.0,65,0.00,,,-99.99,,2013-05-31 13:00:00,
2013-05-31 07:32:00,33.0,23.0,-100.00,West,273,5.0,8.0,65,0.00,,,-99.99,,2013-05-31 13:32:00,
2013-05-31 07:42:00,33.0,23.0,-100.00,West,273,5.0,8.0,65,0.00,,,-99.99,,2013-05-31 13:42:00,
2013-05-31 07:52:00,33.0,23.0,-100.00,West,273,5.0,8.0,65,0.00,,,-99.99,,2013-05-31 13:52:00,
2013-05-31 08:00:00,35.0,24.0,-100.00,WNW,285,3.0,7.0,65,0.00,,,-99.99,,2013-05-31 14:00:00,
2013-05-31 08:32:00,35.0,24.0,-100.00,WNW,285,3.0,7.0,65,0.00,,,-99.99,,2013-05-31 14:32:00,
2013-05-31 08:41:00,35.0,24.0,-100.00,WNW,285,3.0,7.0,65,0.00,,,-99.99,,2013-05-31 14:41:00,
2013-05-31 08:52:00,35.0,24.0,-100.00,WNW,285,3.0,7.0,65,0.00,,,-99.99,,2013-05-31 14:52:00,
2013-05-31 09:00:00,37.0,22.0,-100.00,SW,229,3.0,8.0,53,0.00,,,-99.99,,2013-05-31 15:00:00,
2013-05-31 09:33:00,37.0,22.0,-100.00,SW,229,3.0,8.0,53,0.00,,,-99.99,,2013-05-31 15:33:00,
2013-05-31 09:43:00,37.0,22.0,-100.00,SW,229,3.0,8.0,53,0.00,,,-99.99,,2013-05-31 15:43:00,
2013-05-31 09:53:00,37.0,22.0,-100.00,SW,229,3.0,8.0,53,0.00,,,-99.99,,2013-05-31 15:53:00,
2013-05-31 10:00:00,38.0,20.0,-100.00,WSW,241,6.0,11.0,47,0.00,,,-99.99,,2013-05-31 16:00:00,
2013-05-31 10:33:00,38.0,20.0,-100.00,WSW,241,6.0,11.0,47,0.00,,,-99.99,,2013-05-31 16:33:00,
2013-05-31 10:42:00,38.0,20.0,-100.00,WSW,241,6.0,11.0,47,0.00,,,-99.99,,2013-05-31 16:42:00,
2013-05-31 10:52:00,38.0,20.0,-100.00,WSW,241,6.0,11.0,47,0.00,,,-99.99,,2013-05-31 16:52:00,
2013-05-31 11:00:00,39.0,22.0,-100.00,SW,234,6.0,11.0,50,0.00,,,-99.99,,2013-05-31 17:00:00,
2013-05-31 11:32:00,39.0,22.0,-100.00,SW,234,6.0,11.0,50,0.00,,,-99.99,,2013-05-31 17:32:00,
2013-05-31 11:42:00,39.0,22.0,-100.00,SW,234,6.0,11.0,50,0.00,,,-99.99,,2013-05-31 17:42:00,
2013-05-31 11:52:00,39.0,22.0,-100.00,SW,234,6.0,11.0,50,0.00,,,-99.99,,2013-05-31 17:52:00,
2013-05-31 12:00:00,41.0,23.0,-100.00,SW,236,5.0,9.0,47,0.00,,,-99.99,,2013-05-31 18:00:00,
2013-05-31 12:31:00,41.0,23.0,-100.00,SW,236,5.0,9.0,47,0.00,,,-99.99,,2013-05-31 18:31:00,
2013-05-31 12:41:00,41.0,23.0,-100.00,SW,236,5.0,9.0,47,0.00,,,-99.99,,2013-05-31 18:41:00,
2013-05-31 12:52:00,41.0,23.0,-100.00,SW,236,5.0,9.0,47,0.00,,,-99.99,,2013-05-31 18:52:00,
2013-05-31 13:00:00,42.0,23.0,-100.00,SW,233,5.0,9.0,45,0.00,,,-99.99,,2013-05-31 19:00:00,
2013-05-31 13:32:00,42.0,23.0,-100.00,SW,233,5.0,9.0,45,0.00,,,-99.99,,2013-05-31 19:32:00,
2013-05-31 13:42:00,42.0,23.0,-100.00,SW,233,5.0,9.0,45,0.00,,,-99.99,,2013-05-31 19:42:00,
2013-05-31 13:52:00,42.0,23.0,-100.00,SW,233,5.0,9.0,45,0.00,,,-99.99,,2013-05-31 19:52:00,
2013-05-31 14:00:00,44.0,22.0,-100.00,SW,231,5.0,11.0,41,0.00,,,-99.99,,2013-05-31 20:00:00,
2013-05-31 14:31:00,44.0,22.0,-100.00,SW,231,5.0,11.0,41,0.00,,,-99.99,,2013-05-31 20:31:00,
2013-05-31 14:41:00,44.0,22.0,-100.00,SW,231,5.0,11.0,41,0.00,,,-99.99,,2013-05-31 20:41:00,
2013-05-31 14:51:00,44.0,22.0,-100.00,SW,231,5.0,11.0,41,0.00,,,-99.99,,2013-05-31 20:51:00,
2013-05-31 15:00:00,46.0,21.0,-100.00,SW,225,6.0,10.0,37,0.00,,,-99.99,,2013-05-31 21:00:00,
2013-05-31 15:32:00,46.0,21.0,-100.00,SW,225,6.0,10.0,37,0.00,,,-99.99,,2013-05-31 21:32:00,
2013-05-31 15:42:00,46.0,21.0,-100.00,SW,225,6.0,10.0,37,0.00,,,-99.99,,2013-05-31 21:42:00,
2013-05-31 15:53:00,46.0,21.0,-100.00,SW,225,6.0,10.0,37,0.00,,,-99.99,,2013-05-31 21:53:00,
2013-05-31 16:00:00,46.0,21.0,-100.00,WSW,237,5.0,10.0,37,0.00,,,-99.99,,2013-05-31 22:00:00,
2013-05-31 16:33:00,46.0,21.0,-100.00,WSW,237,5.0,10.0,37,0.00,,,-99.99,,2013-05-31 22:33:00,
2013-05-31 16:42:00,46.0,21.0,-100.00,WSW,237,5.0,10.0,37,0.00,,,-99.99,,2013-05-31 22:42:00,
2013-05-31 16:52:00,46.0,21.0,-100.00,WSW,237,5.0,10.0,37,0.00,,,-99.99,,2013-05-31 22:52:00,
2013-05-31 17:00:00,46.0,23.0,-100.00,SW,226,5.0,9.0,40,0.00,,,-99.99,,2013-05-31 23:00:00,
2013-05-31 17:32:00,46.0,23.0,-100.00,SW,226,5.0,9.0,40,0.00,,,-99.99,,2013-05-31 23:32:00,
2013-05-31 17:42:00,46.0,23.0,-100.00,SW,226,5.0,9.0,40,0.00,,,-99.99,,2013-05-31 23:42:00,
2013-05-31 17:52:00,46.0,23.0,-100.00,SW,226,5.0,9.0,40,0.00,,,-99.99,,2013-05-31 23:52:00,
2013-05-31 18:00:00,45.0,23.0,-100.00,SW,230,4.0,7.0,41,0.00,,,-99.99,,2013-06-01 00:00:00,
2013-05-31 18:32:00,45.0,23.0,-100.00,SW,230,4.0,7.0,41,0.00,,,-99.99,,2013-06-01 00:32:00,
2013-05-31 18:42:00,45.0,23.0,-100.00,SW,230,4.0,7.0,41,0.00,,,-99.99,,2013-06-01 00:42:00,
2013-05-31 18:52:00,45.0,23.0,-100.00,SW,230,4.0,7.0,41,0.00,,,-99.99,,2013-06-01 00:52:00,
2013-05-31 19:00:00,44.0,20.0,-100.00,West,266,4.0,8.0,38,0.00,,,-99.99,,2013-06-01 01:00:00,
2013-05-31 19:32:00,44.0,20.0,-100.00,West,266,4.0,8.0,38,0.00,,,-99.99,,2013-06-01 01:32:00,
2013-05-31 19:42:00,44.0,20.0,-100.00,West,266,4.0,8.0,38,0.00,,,-99.99,,2013-06-01 01:42:00,
2013-05-31 19:52:00,44.0,20.0,-100.00,West,266,4.0,8.0,38,0.00,,,-99.99,,2013-06-01 01:52:00,
2013-05-31 20:00:00,41.0,16.0,-100.00,WSW,254,2.0,6.0,35,0.00,,,-99.99,,2013-06-01 02:00:00,
2013-05-31 20:32:00,41.0,16.0,-100.00,WSW,254,2.0,6.0,35,0.00,,,-99.99,,2013-06-01 02:32:00,
2013-05-31 20:42:00,41.0,16.0,-100.00,WSW,254,2.0,6.0,35,0.00,,,-99.99,,2013-06-01 02:42:00,
2013-05-31 20:51:00,41.0,16.0,-100.00,WSW,254,2.0,6.0,35,0.00,,,-99.99,,2013-06-01 02:51:00,
2013-05-31 21:00:00,39.0,14.0,-100.00,North,11,2.0,3.0,35,0.00,,,-99.99,,2013-06-01 03:00:00,
2013-05-31 21:33:00,39.0,14.0,-100.00,North,11,2.0,3.0,35,0.00,,,-99.99,,2013-06-01 03:33:00,
2013-05-31 21:43:00,39.0,14.0,-100.00,North,11,2.0,3.0,35,0.00,,,-99.99,,2013-06-01 03:43:00,
2013-05-31 21:53:00,39.0,14.0,-100.00,North,11,2.0,3.0,35,0.00,,,-99.99,,2013-06-01 03:53:00,
2013-05-31 22:00:00,38.0,14.0,-100.00,NNE,13,1.0,2.0,36,0.00,,,-99.99,,2013-06-01 04:00:00,
2013-05-31 22:33:00,38.0,14.0,-100.00,NNE,13,1.0,2.0,36,0.00,,,-99.99,,2013-06-01 04:33:00,
2013-05-31 22:42:00,38.0,14.0,-100.00,NNE,13,1.0,2.0,36,0.00,,,-99.99,,2013-06-01 04:42:00,
2013-05-31 22:53:00,38.0,14.0,-100.00,NNE,13,1.0,2.0,36,0.00,,,-99.99,,2013-06-01 04:53:00,
2013-05-31 23:00:00,37.0,16.0,-100.00,North,6,1.0,2.0,41,0.00,,,-99.99,,2013-06-01 05:00:00,
2013-05-31 23:32:00,37.0,16.0,-100.00,North,6,1.0,2.0,41,0.00,,,-99.99,,2013-06-01 05:32:00,
2013-05-31 23:42:00,37.0,16.0,-100.00,North,6,1.0,2.0,41,0.00,,,-99.99,,2013-06-01 05:42:00,
2013-05-31 23:52:00,37.0,16.0,-100.00,North,6,1.0,2.0,41,0.00,,,-99.99,,2013-06-01 05:52:00,